sensor_id;sensor_type;location;lat;lon;timestamp;temperature;humidity
35563;DHT22;21665;40.108;18.302;2023-07-13T00:01:59;23.90;99.90
35563;DHT22;21665;40.108;18.302;2023-07-13T01:25:09;22.80;99.90
35563;DHT22;21665;40.108;18.302;2023-07-13T01:27:36;22.80;99.90
35563;DHT22;21665;40.108;18.302;2023-07-13T01:30:03;22.70;99.90
35563;DHT22;21665;40.108;18.302;2023-07-13T01:32:30;22.70;99.90
35563;DHT22;21665;40.108;18.302;2023-07-13T01:34:59;22.70;99.90
35563;DHT22;21665;40.108;18.302;2023-07-13T01:37:26;22.60;99.90
35563;DHT22;21665;40.108;18.302;2023-07-13T01:39:53;22.60;99.90
35563;DHT22;21665;40.108;18.302;2023-07-13T01:42:19;22.60;99.90
35563;DHT22;21665;40.108;18.302;2023-07-13T01:44:48;22.60;99.90
35563;DHT22;21665;40.108;18.302;2023-07-13T01:47:14;22.50;99.90
35563;DHT22;21665;40.108;18.302;2023-07-13T01:49:41;22.60;99.90
35563;DHT22;21665;40.108;18.302;2023-07-13T01:52:08;22.50;99.90
35563;DHT22;21665;40.108;18.302;2023-07-13T01:54:34;22.60;99.90
35563;DHT22;21665;40.108;18.302;2023-07-13T01:57:01;22.50;99.90
35563;DHT22;21665;40.108;18.302;2023-07-13T01:59:27;22.40;99.90
35563;DHT22;21665;40.108;18.302;2023-07-13T02:01:53;22.40;99.90
35563;DHT22;21665;40.108;18.302;2023-07-13T02:04:20;22.40;99.90
35563;DHT22;21665;40.108;18.302;2023-07-13T02:06:47;22.40;99.90
35563;DHT22;21665;40.108;18.302;2023-07-13T02:09:15;22.40;99.90
35563;DHT22;21665;40.108;18.302;2023-07-13T02:11:42;22.40;99.90
35563;DHT22;21665;40.108;18.302;2023-07-13T02:14:11;22.50;99.90
35563;DHT22;21665;40.108;18.302;2023-07-13T02:16:38;22.50;99.90
35563;DHT22;21665;40.108;18.302;2023-07-13T02:19:04;22.50;99.90
35563;DHT22;21665;40.108;18.302;2023-07-13T02:21:33;22.40;99.90
35563;DHT22;21665;40.108;18.302;2023-07-13T02:23:59;22.30;99.90
35563;DHT22;21665;40.108;18.302;2023-07-13T02:26:27;22.20;99.90
35563;DHT22;21665;40.108;18.302;2023-07-13T02:28:53;22.10;99.90
35563;DHT22;21665;40.108;18.302;2023-07-13T02:31:20;22.10;99.90
35563;DHT22;21665;40.108;18.302;2023-07-13T02:33:46;22.10;99.90
35563;DHT22;21665;40.108;18.302;2023-07-13T02:36:13;22.20;99.90
35563;DHT22;21665;40.108;18.302;2023-07-13T02:38:44;22.10;99.90
35563;DHT22;21665;40.108;18.302;2023-07-13T02:41:11;22.00;99.90
35563;DHT22;21665;40.108;18.302;2023-07-13T02:43:40;22.10;99.90
35563;DHT22;21665;40.108;18.302;2023-07-13T02:46:11;22.10;99.90
35563;DHT22;21665;40.108;18.302;2023-07-13T02:48:38;22.10;99.90
35563;DHT22;21665;40.108;18.302;2023-07-13T02:51:06;22.00;99.90
35563;DHT22;21665;40.108;18.302;2023-07-13T02:53:34;22.00;99.90
35563;DHT22;21665;40.108;18.302;2023-07-13T02:56:02;21.90;99.90
35563;DHT22;21665;40.108;18.302;2023-07-13T02:58:29;21.90;99.90
35563;DHT22;21665;40.108;18.302;2023-07-13T03:00:55;21.80;99.90
35563;DHT22;21665;40.108;18.302;2023-07-13T03:03:23;21.90;99.90
35563;DHT22;21665;40.108;18.302;2023-07-13T03:06:02;21.80;99.90
35563;DHT22;21665;40.108;18.302;2023-07-13T03:08:38;21.90;99.90
35563;DHT22;21665;40.108;18.302;2023-07-13T03:11:10;21.90;99.90
35563;DHT22;21665;40.108;18.302;2023-07-13T03:13:41;21.80;99.90
35563;DHT22;21665;40.108;18.302;2023-07-13T03:16:10;21.70;99.90
35563;DHT22;21665;40.108;18.302;2023-07-13T03:18:38;21.70;99.90
35563;DHT22;21665;40.108;18.302;2023-07-13T03:21:11;21.70;99.90
35563;DHT22;21665;40.108;18.302;2023-07-13T03:23:39;21.70;99.90
35563;DHT22;21665;40.108;18.302;2023-07-13T03:26:15;21.70;99.90
35563;DHT22;21665;40.108;18.302;2023-07-13T03:28:43;21.60;99.90
35563;DHT22;21665;40.108;18.302;2023-07-13T03:31:19;21.70;99.90
35563;DHT22;21665;40.108;18.302;2023-07-13T03:33:47;21.70;99.90
35563;DHT22;21665;40.108;18.302;2023-07-13T03:36:18;21.70;99.90
35563;DHT22;21665;40.108;18.302;2023-07-13T03:38:50;21.70;99.90
35563;DHT22;21665;40.108;18.302;2023-07-13T03:41:22;21.70;99.90
35563;DHT22;21665;40.108;18.302;2023-07-13T03:43:53;21.80;99.90
35563;DHT22;21665;40.108;18.302;2023-07-13T03:46:22;21.80;99.90
35563;DHT22;21665;40.108;18.302;2023-07-13T03:48:49;21.90;99.90
35563;DHT22;21665;40.108;18.302;2023-07-13T03:51:17;21.80;99.90
35563;DHT22;21665;40.108;18.302;2023-07-13T03:53:46;21.80;99.90
35563;DHT22;21665;40.108;18.302;2023-07-13T03:56:17;21.90;99.90
35563;DHT22;21665;40.108;18.302;2023-07-13T03:58:48;22.00;99.90
35563;DHT22;21665;40.108;18.302;2023-07-13T04:01:19;22.10;99.90
35563;DHT22;21665;40.108;18.302;2023-07-13T04:03:47;22.30;99.90
35563;DHT22;21665;40.108;18.302;2023-07-13T04:06:20;22.30;99.90
35563;DHT22;21665;40.108;18.302;2023-07-13T04:08:50;22.50;99.90
35563;DHT22;21665;40.108;18.302;2023-07-13T04:11:18;22.50;99.90
35563;DHT22;21665;40.108;18.302;2023-07-13T04:13:45;22.60;99.90
35563;DHT22;21665;40.108;18.302;2023-07-13T04:16:12;22.70;99.90
35563;DHT22;21665;40.108;18.302;2023-07-13T04:18:39;22.80;99.90
35563;DHT22;21665;40.108;18.302;2023-07-13T04:21:06;22.90;99.90
35563;DHT22;21665;40.108;18.302;2023-07-13T04:23:32;23.00;99.90
35563;DHT22;21665;40.108;18.302;2023-07-13T04:25:58;23.10;99.90
35563;DHT22;21665;40.108;18.302;2023-07-13T04:28:25;23.30;99.90
35563;DHT22;21665;40.108;18.302;2023-07-13T04:30:52;23.30;99.90
35563;DHT22;21665;40.108;18.302;2023-07-13T04:33:19;23.50;99.90
35563;DHT22;21665;40.108;18.302;2023-07-13T04:35:50;23.70;99.90
35563;DHT22;21665;40.108;18.302;2023-07-13T04:38:20;23.90;99.90
35563;DHT22;21665;40.108;18.302;2023-07-13T04:40:47;24.00;99.90
35563;DHT22;21665;40.108;18.302;2023-07-13T04:43:18;24.10;99.90
35563;DHT22;21665;40.108;18.302;2023-07-13T04:45:47;24.40;99.90
35563;DHT22;21665;40.108;18.302;2023-07-13T04:48:17;24.90;99.90
35563;DHT22;21665;40.108;18.302;2023-07-13T04:50:44;25.40;99.90
35563;DHT22;21665;40.108;18.302;2023-07-13T04:53:11;25.80;99.90
35563;DHT22;21665;40.108;18.302;2023-07-13T04:55:38;26.40;99.90
35563;DHT22;21665;40.108;18.302;2023-07-13T04:58:05;27.20;99.90
35563;DHT22;21665;40.108;18.302;2023-07-13T05:00:32;27.90;99.90
35563;DHT22;21665;40.108;18.302;2023-07-13T05:02:59;28.50;99.90
35563;DHT22;21665;40.108;18.302;2023-07-13T05:05:26;29.20;99.90
35563;DHT22;21665;40.108;18.302;2023-07-13T05:07:53;29.60;99.90
35563;DHT22;21665;40.108;18.302;2023-07-13T05:10:20;29.80;99.90
35563;DHT22;21665;40.108;18.302;2023-07-13T05:12:46;29.90;99.90
35563;DHT22;21665;40.108;18.302;2023-07-13T05:15:13;29.90;99.90
35563;DHT22;21665;40.108;18.302;2023-07-13T05:17:40;30.10;99.90
35563;DHT22;21665;40.108;18.302;2023-07-13T05:20:07;30.30;99.90
35563;DHT22;21665;40.108;18.302;2023-07-13T05:22:34;30.80;99.90
35563;DHT22;21665;40.108;18.302;2023-07-13T05:25:04;30.50;99.90
35563;DHT22;21665;40.108;18.302;2023-07-13T05:27:31;30.70;99.90
35563;DHT22;21665;40.108;18.302;2023-07-13T05:29:57;31.20;99.90
35563;DHT22;21665;40.108;18.302;2023-07-13T05:32:24;31.70;99.90
35563;DHT22;21665;40.108;18.302;2023-07-13T05:34:50;31.90;99.90
35563;DHT22;21665;40.108;18.302;2023-07-13T05:37:17;32.00;99.90
35563;DHT22;21665;40.108;18.302;2023-07-13T05:39:44;32.50;99.90
35563;DHT22;21665;40.108;18.302;2023-07-13T05:42:10;32.80;99.90
35563;DHT22;21665;40.108;18.302;2023-07-13T05:44:37;32.60;99.90
35563;DHT22;21665;40.108;18.302;2023-07-13T05:47:03;32.60;99.90
35563;DHT22;21665;40.108;18.302;2023-07-13T05:49:30;33.20;99.90
35563;DHT22;21665;40.108;18.302;2023-07-13T05:51:57;33.70;99.90
35563;DHT22;21665;40.108;18.302;2023-07-13T05:54:23;34.10;99.90
35563;DHT22;21665;40.108;18.302;2023-07-13T05:56:56;33.90;99.90
35563;DHT22;21665;40.108;18.302;2023-07-13T05:59:23;34.50;99.90
35563;DHT22;21665;40.108;18.302;2023-07-13T06:01:49;35.00;99.90
35563;DHT22;21665;40.108;18.302;2023-07-13T06:04:18;35.40;99.90
35563;DHT22;21665;40.108;18.302;2023-07-13T06:06:47;35.30;99.90
35563;DHT22;21665;40.108;18.302;2023-07-13T06:13:57;35.60;99.90
35563;DHT22;21665;40.108;18.302;2023-07-13T12:21:57;39.10;61.50
35563;DHT22;21665;40.108;18.302;2023-07-13T12:24:26;38.80;65.90
35563;DHT22;21665;40.108;18.302;2023-07-13T12:29:24;38.90;64.00
35563;DHT22;21665;40.108;18.302;2023-07-13T12:31:51;38.80;64.60
35563;DHT22;21665;40.108;18.302;2023-07-13T12:34:22;38.80;65.50
35563;DHT22;21665;40.108;18.302;2023-07-13T12:37:00;38.90;67.90
35563;DHT22;21665;40.108;18.302;2023-07-13T12:39:33;38.60;63.90
35563;DHT22;21665;40.108;18.302;2023-07-13T12:42:25;38.60;63.20
35563;DHT22;21665;40.108;18.302;2023-07-13T12:47:23;38.50;65.60
35563;DHT22;21665;40.108;18.302;2023-07-13T12:49:58;38.60;63.70
35563;DHT22;21665;40.108;18.302;2023-07-13T12:52:31;38.50;66.50
35563;DHT22;21665;40.108;18.302;2023-07-13T12:55:40;38.50;66.40
35563;DHT22;21665;40.108;18.302;2023-07-13T12:58:03;38.60;67.80
35563;DHT22;21665;40.108;18.302;2023-07-13T13:00:39;38.60;67.70
35563;DHT22;21665;40.108;18.302;2023-07-13T13:03:39;38.60;67.80
35563;DHT22;21665;40.108;18.302;2023-07-13T13:06:29;38.40;67.80
35563;DHT22;21665;40.108;18.302;2023-07-13T13:11:36;38.60;67.60
35563;DHT22;21665;40.108;18.302;2023-07-13T13:14:05;38.50;67.80
35563;DHT22;21665;40.108;18.302;2023-07-13T13:16:40;38.40;70.90
35563;DHT22;21665;40.108;18.302;2023-07-13T13:19:20;38.30;70.20
35563;DHT22;21665;40.108;18.302;2023-07-13T13:22:05;38.20;71.40
35563;DHT22;21665;40.108;18.302;2023-07-13T13:24:31;38.00;71.40
35563;DHT22;21665;40.108;18.302;2023-07-13T13:27:00;37.40;73.30
35563;DHT22;21665;40.108;18.302;2023-07-13T13:32:17;37.40;73.00
35563;DHT22;21665;40.108;18.302;2023-07-13T13:34:48;37.40;71.70
35563;DHT22;21665;40.108;18.302;2023-07-13T13:37:23;37.50;72.10
35563;DHT22;21665;40.108;18.302;2023-07-13T13:39:54;37.50;73.90
35563;DHT22;21665;40.108;18.302;2023-07-13T13:42:21;37.50;73.70
35563;DHT22;21665;40.108;18.302;2023-07-13T13:44:53;37.40;74.30
35563;DHT22;21665;40.108;18.302;2023-07-13T13:47:38;37.30;74.40
35563;DHT22;21665;40.108;18.302;2023-07-13T13:53:16;36.80;75.40
35563;DHT22;21665;40.108;18.302;2023-07-13T13:55:42;36.80;76.20
35563;DHT22;21665;40.108;18.302;2023-07-13T13:58:10;37.00;75.80
35563;DHT22;21665;40.108;18.302;2023-07-13T14:00:39;37.00;75.30
35563;DHT22;21665;40.108;18.302;2023-07-13T14:03:13;37.10;72.00
35563;DHT22;21665;40.108;18.302;2023-07-13T14:05:45;37.00;73.60
35563;DHT22;21665;40.108;18.302;2023-07-13T14:08:20;37.00;75.60
35563;DHT22;21665;40.108;18.302;2023-07-13T14:10:49;37.00;75.20
35563;DHT22;21665;40.108;18.302;2023-07-13T14:13:22;37.00;77.20
35563;DHT22;21665;40.108;18.302;2023-07-13T14:21:14;36.40;75.50
35563;DHT22;21665;40.108;18.302;2023-07-13T15:01:47;35.90;75.70
35563;DHT22;21665;40.108;18.302;2023-07-13T15:04:54;36.00;78.70
35563;DHT22;21665;40.108;18.302;2023-07-13T15:08:45;36.10;78.50
35563;DHT22;21665;40.108;18.302;2023-07-13T18:38:23;28.60;99.90
35563;DHT22;21665;40.108;18.302;2023-07-13T18:56:39;28.20;99.90
35563;DHT22;21665;40.108;18.302;2023-07-13T19:06:27;27.90;99.90
35563;DHT22;21665;40.108;18.302;2023-07-13T19:11:56;27.80;99.90
35563;DHT22;21665;40.108;18.302;2023-07-13T19:14:23;27.70;99.90
35563;DHT22;21665;40.108;18.302;2023-07-13T19:19:26;27.70;99.90
35563;DHT22;21665;40.108;18.302;2023-07-13T19:21:54;27.60;99.90
35563;DHT22;21665;40.108;18.302;2023-07-13T19:24:24;27.60;99.90
35563;DHT22;21665;40.108;18.302;2023-07-13T19:26:52;27.50;99.90
35563;DHT22;21665;40.108;18.302;2023-07-13T19:29:45;27.60;99.90
35563;DHT22;21665;40.108;18.302;2023-07-13T22:06:00;25.40;99.90
35563;DHT22;21665;40.108;18.302;2023-07-13T22:08:36;25.30;99.90
35563;DHT22;21665;40.108;18.302;2023-07-13T22:11:12;25.30;99.90
35563;DHT22;21665;40.108;18.302;2023-07-13T22:13:40;25.30;99.90
35563;DHT22;21665;40.108;18.302;2023-07-13T22:16:22;25.20;99.90
35563;DHT22;21665;40.108;18.302;2023-07-13T22:21:47;25.20;99.90
35563;DHT22;21665;40.108;18.302;2023-07-13T22:24:19;25.10;99.90
35563;DHT22;21665;40.108;18.302;2023-07-13T22:26:50;25.10;99.90
35563;DHT22;21665;40.108;18.302;2023-07-13T22:29:24;25.10;99.90
35563;DHT22;21665;40.108;18.302;2023-07-13T22:31:53;25.00;99.90
35563;DHT22;21665;40.108;18.302;2023-07-13T22:34:20;25.00;99.90
35563;DHT22;21665;40.108;18.302;2023-07-13T22:36:50;25.00;99.90
35563;DHT22;21665;40.108;18.302;2023-07-13T22:39:26;24.90;99.90
35563;DHT22;21665;40.108;18.302;2023-07-13T22:42:01;24.90;99.90
35563;DHT22;21665;40.108;18.302;2023-07-13T22:44:33;25.00;99.90
35563;DHT22;21665;40.108;18.302;2023-07-13T23:35:35;24.50;99.90
35563;DHT22;21665;40.108;18.302;2023-07-13T23:38:03;24.40;99.90
35563;DHT22;21665;40.108;18.302;2023-07-13T23:40:29;24.30;99.90
35563;DHT22;21665;40.108;18.302;2023-07-13T23:42:59;24.10;99.90
35563;DHT22;21665;40.108;18.302;2023-07-13T23:45:26;24.00;99.90
35563;DHT22;21665;40.108;18.302;2023-07-13T23:47:56;24.00;99.90
35563;DHT22;21665;40.108;18.302;2023-07-13T23:50:30;23.90;99.90
35563;DHT22;21665;40.108;18.302;2023-07-13T23:53:01;23.90;99.90
35563;DHT22;21665;40.108;18.302;2023-07-13T23:55:31;23.90;99.90
35563;DHT22;21665;40.108;18.302;2023-07-13T23:58:00;23.90;99.90
